Time;durP1;ratioP1;P1;durP2;ratioP2;P2;SDS_P1;SDS_P2;PMS_P1;PMS_P2;Temp;Humidity;BMP_temperature;BMP_pressure;BME280_temperature;BME280_humidity;BME280_pressure;Samples;Min_cycle;Max_cycle;Signal;HPM_P1;HPM_P2
2021/07/17 00:00:12;;;;;;;11.63;6.03;;;;;;;21.19;88.02;101428.63;5073551;28;20182;-69
2021/07/17 00:02:37;;;;;;;11.00;5.90;;;;;;;21.34;87.06;101419.16;5073152;28;20241;-69
2021/07/17 00:05:13;;;;;;;16.77;6.67;;;;;;;21.38;87.05;101398.03;5073428;28;20631;-69
2021/07/17 00:07:39;;;;;;;11.10;6.40;;;;;;;21.28;87.57;101397.13;5072970;28;20198;-69
2021/07/17 00:10:10;;;;;;;12.73;6.90;;;;;;;21.18;88.43;101376.19;5073124;28;20266;-69
2021/07/17 00:12:35;;;;;;;11.77;6.57;;;;;;;21.24;88.29;101390.25;5072997;28;20177;-69
2021/07/17 00:15:01;;;;;;;13.17;7.03;;;;;;;21.15;88.89;101381.88;5071677;28;20265;-70
2021/07/17 00:17:26;;;;;;;12.43;7.10;;;;;;;21.13;88.89;101364.88;5072981;28;20174;-70
2021/07/17 00:19:51;;;;;;;11.63;7.10;;;;;;;21.16;89.04;101361.03;5072073;28;20193;-70
2021/07/17 00:22:16;;;;;;;15.77;6.37;;;;;;;21.06;89.52;101361.00;5071828;28;20179;-70
2021/07/17 00:24:42;;;;;;;10.97;6.57;;;;;;;21.01;90.01;101346.13;5073288;28;20216;-69
2021/07/17 00:27:07;;;;;;;12.83;7.23;;;;;;;20.98;89.98;101336.41;5072768;28;20210;-69
2021/07/17 00:29:32;;;;;;;15.30;6.80;;;;;;;20.94;90.56;101336.81;5073250;28;20179;-68
2021/07/17 00:31:58;;;;;;;11.53;6.73;;;;;;;20.86;91.28;101362.78;5073085;28;20497;-69
2021/07/17 00:34:24;;;;;;;13.67;7.50;;;;;;;20.79;91.60;101366.13;5076425;28;20177;-69
2021/07/17 00:36:50;;;;;;;13.10;6.87;;;;;;;20.74;92.24;101358.41;5077261;28;20507;-68
2021/07/17 00:39:15;;;;;;;16.93;7.47;;;;;;;20.75;92.23;101357.41;5076075;28;20198;-68
2021/07/17 00:41:40;;;;;;;11.97;7.40;;;;;;;20.68;92.83;101358.06;5076953;28;20179;-69
2021/07/17 00:44:07;;;;;;;18.73;7.37;;;;;;;20.62;93.49;101362.19;5076818;28;20171;-68
2021/07/17 00:46:33;;;;;;;14.97;7.90;;;;;;;20.62;93.82;101391.16;5075837;28;20286;-68
2021/07/17 00:48:58;;;;;;;12.33;7.03;;;;;;;20.59;94.25;101392.28;5075622;28;20273;-69
2021/07/17 00:51:26;;;;;;;15.03;8.67;;;;;;;20.69;93.94;101390.50;5077272;28;20178;-70
2021/07/17 00:53:51;;;;;;;18.70;8.10;;;;;;;20.78;93.26;101378.84;5075457;28;20185;-71
2021/07/17 00:56:16;;;;;;;14.83;8.10;;;;;;;20.70;93.68;101364.22;5076486;28;20683;-69
2021/07/17 00:58:42;;;;;;;22.17;8.93;;;;;;;20.66;94.78;101362.78;5075946;28;20203;-70
2021/07/17 01:01:08;;;;;;;16.57;8.70;;;;;;;20.64;95.17;101356.63;5075605;28;20536;-68
2021/07/17 01:03:34;;;;;;;16.33;8.93;;;;;;;20.71;95.01;101360.53;5076807;28;20396;-68
2021/07/17 01:05:59;;;;;;;16.07;8.83;;;;;;;20.68;95.43;101367.06;5076431;28;20735;-69
2021/07/17 01:08:25;;;;;;;12.93;9.03;;;;;;;20.78;95.20;101380.69;5076350;28;20289;-69
2021/07/17 01:10:51;;;;;;;16.50;10.60;;;;;;;20.80;95.29;101394.97;5075231;28;20178;-69
2021/07/17 01:13:16;;;;;;;19.63;12.30;;;;;;;20.76;96.44;101364.53;5074937;28;20655;-69
2021/07/17 01:15:41;;;;;;;16.97;10.30;;;;;;;20.74;95.87;101360.25;5076847;28;20282;-69
2021/07/17 01:18:07;;;;;;;16.67;11.63;;;;;;;20.70;96.68;101356.94;5076542;28;20203;-69
2021/07/17 01:20:33;;;;;;;21.13;11.83;;;;;;;20.87;95.93;101379.91;5076437;28;20182;-69
2021/07/17 01:22:58;;;;;;;20.97;9.63;;;;;;;20.72;95.20;101356.81;5075515;28;20589;-69
2021/07/17 01:25:31;;;;;;;16.03;9.77;;;;;;;20.62;96.26;101351.34;5075687;28;20195;-68
2021/07/17 01:27:58;;;;;;;14.57;10.77;;;;;;;20.54;96.73;101346.59;5078599;28;20256;-69
2021/07/17 01:30:28;;;;;;;15.73;11.30;;;;;;;20.54;97.58;101359.28;5077956;28;20246;-69
2021/07/17 01:32:54;;;;;;;21.83;12.23;;;;;;;20.49;98.21;101362.41;5079449;28;20167;-69
2021/07/17 01:35:19;;;;;;;15.57;12.00;;;;;;;20.48;98.40;101366.09;5076239;28;20201;-69
2021/07/17 01:37:45;;;;;;;16.93;11.67;;;;;;;20.36;99.10;101358.09;5076794;28;20175;-69
2021/07/17 01:40:18;;;;;;;19.40;11.53;;;;;;;20.26;99.66;101361.63;5076171;28;20182;-69
2021/07/17 01:42:44;;;;;;;16.57;11.50;;;;;;;20.28;100.00;101359.63;5074630;28;20184;-69
2021/07/17 01:45:10;;;;;;;19.60;12.67;;;;;;;20.32;100.00;101379.19;5075537;28;20178;-69
2021/07/17 01:47:36;;;;;;;19.87;12.93;;;;;;;20.45;99.26;101392.63;5075527;28;20199;-69
2021/07/17 01:50:03;;;;;;;19.87;12.60;;;;;;;20.27;100.00;101411.25;5058037;28;20639;-70
2021/07/17 01:52:29;;;;;;;19.33;12.33;;;;;;;20.23;100.00;101435.06;5074648;28;20236;-70
2021/07/17 01:54:54;;;;;;;18.97;14.10;;;;;;;20.20;100.00;101418.19;5074521;28;20593;-68
2021/07/17 01:57:19;;;;;;;21.97;14.77;;;;;;;20.30;100.00;101413.72;5075714;28;20590;-68
2021/07/17 01:59:45;;;;;;;18.00;13.73;;;;;;;20.19;100.00;101430.03;5075423;28;20178;-68
2021/07/17 02:02:12;;;;;;;17.50;11.90;;;;;;;20.14;100.00;101421.44;5075419;28;20202;-69
2021/07/17 02:04:37;;;;;;;18.67;14.07;;;;;;;20.04;100.00;101415.03;5057372;28;20185;-68
2021/07/17 02:07:04;;;;;;;21.07;17.33;;;;;;;20.08;100.00;101427.38;5075243;28;20203;-69
2021/07/17 02:09:29;;;;;;;18.87;15.43;;;;;;;19.97;100.00;101426.38;5075314;28;20185;-69
2021/07/17 02:11:55;;;;;;;23.10;15.60;;;;;;;19.92;100.00;101423.19;5075410;28;20175;-71
2021/07/17 02:14:20;;;;;;;21.53;13.83;;;;;;;19.79;100.00;101427.91;5075361;28;20228;-70
2021/07/17 02:16:46;;;;;;;20.10;14.73;;;;;;;19.85;100.00;101443.66;5075120;28;20237;-70
2021/07/17 02:19:22;;;;;;;24.73;16.27;;;;;;;19.77;100.00;101440.72;5073974;28;20516;-69
2021/07/17 02:21:49;;;;;;;22.77;15.70;;;;;;;19.66;100.00;101438.88;5057079;28;20183;-69
2021/07/17 02:24:15;;;;;;;19.70;13.17;;;;;;;19.53;100.00;101440.00;5073735;28;20639;-69
2021/07/17 02:26:41;;;;;;;22.33;13.37;;;;;;;19.45;100.00;101437.91;5073677;28;20209;-69
2021/07/17 02:29:07;;;;;;;18.93;14.27;;;;;;;19.39;100.00;101434.81;5075277;28;20540;-69
2021/07/17 02:31:32;;;;;;;24.07;17.03;;;;;;;19.39;100.00;101448.34;5073906;28;20232;-69
2021/07/17 02:33:57;;;;;;;24.77;18.00;;;;;;;19.31;100.00;101466.03;5074958;28;20171;-70
2021/07/17 02:36:24;;;;;;;27.63;17.83;;;;;;;19.31;100.00;101487.69;5073744;28;20195;-70
2021/07/17 02:38:50;;;;;;;22.70;17.47;;;;;;;19.31;100.00;101524.72;5073857;28;20240;-70
2021/07/17 02:41:15;;;;;;;25.43;18.53;;;;;;;19.26;100.00;101526.94;5075286;28;20598;-69
2021/07/17 02:43:40;;;;;;;24.97;18.57;;;;;;;19.26;100.00;101549.44;5074002;28;20225;-70
2021/07/17 02:46:05;;;;;;;27.97;20.30;;;;;;;19.30;100.00;101579.84;5075042;28;20199;-70
2021/07/17 02:48:31;;;;;;;29.93;21.17;;;;;;;19.27;100.00;101578.22;5074835;28;20673;-69
2021/07/17 02:50:56;;;;;;;25.10;19.73;;;;;;;19.27;100.00;101604.44;5075009;28;20178;-69
2021/07/17 02:53:21;;;;;;;27.80;19.27;;;;;;;19.25;100.00;101642.44;5074992;28;20287;-68
2021/07/17 02:55:46;;;;;;;26.53;19.43;;;;;;;19.25;100.00;101664.09;5073780;28;20210;-69
2021/07/17 02:58:12;;;;;;;34.83;21.70;;;;;;;19.25;100.00;101642.44;5074413;28;20697;-69
2021/07/17 03:00:37;;;;;;;32.07;22.77;;;;;;;19.30;100.00;101679.97;5074187;28;20179;-69
2021/07/17 03:03:10;;;;;;;30.20;21.03;;;;;;;19.29;100.00;101733.25;5074425;28;20182;-68
2021/07/17 03:05:35;;;;;;;30.03;21.57;;;;;;;19.34;100.00;101695.91;5073049;28;20194;-69
2021/07/17 03:08:01;;;;;;;28.57;21.37;;;;;;;19.50;100.00;101746.16;5055941;28;20281;-69
2021/07/17 03:10:26;;;;;;;31.10;21.20;;;;;;;19.53;100.00;101716.16;5056011;28;20174;-68
2021/07/17 03:12:51;;;;;;;28.87;20.53;;;;;;;19.56;100.00;101734.88;5073899;28;20177;-68
2021/07/17 03:15:16;;;;;;;27.47;21.53;;;;;;;19.57;100.00;101715.81;5073893;28;20543;-68
2021/07/17 03:17:42;;;;;;;28.50;21.57;;;;;;;19.49;100.00;101731.75;5073904;28;20172;-68
2021/07/17 03:20:07;;;;;;;36.70;22.63;;;;;;;19.46;100.00;101621.00;5073809;28;20639;-69
2021/07/17 03:22:34;;;;;;;25.17;19.80;;;;;;;19.46;100.00;101680.53;5072585;28;20551;-69
2021/07/17 03:24:59;;;;;;;27.10;21.93;;;;;;;19.38;100.00;101726.28;5073604;28;20179;-69
2021/07/17 03:27:25;;;;;;;32.97;21.23;;;;;;;19.45;100.00;101727.56;5073921;28;20205;-69
2021/07/17 03:29:50;;;;;;;25.63;21.17;;;;;;;19.55;100.00;101763.81;5072499;28;20175;-70
2021/07/17 03:32:22;;;;;;;27.37;21.10;;;;;;;19.61;100.00;101781.41;5073509;28;20179;-70
2021/07/17 03:34:47;;;;;;;26.77;19.90;;;;;;;19.75;100.00;101799.34;5072881;28;20205;-70
2021/07/17 03:37:12;;;;;;;28.23;20.03;;;;;;;19.81;100.00;101797.03;5072315;28;20198;-69
2021/07/17 03:39:37;;;;;;;25.23;19.77;;;;;;;19.89;100.00;101808.13;5073809;28;20175;-68
2021/07/17 03:42:03;;;;;;;25.13;18.87;;;;;;;19.87;100.00;101769.47;5073534;28;20181;-69
2021/07/17 03:44:29;;;;;;;25.23;19.53;;;;;;;19.87;100.00;101829.06;5074016;28;20253;-69
2021/07/17 03:46:55;;;;;;;23.70;19.73;;;;;;;19.89;100.00;101797.28;5073398;28;20199;-69
2021/07/17 03:49:20;;;;;;;25.17;19.50;;;;;;;19.90;100.00;101809.84;5073540;28;20274;-69
2021/07/17 03:51:45;;;;;;;27.67;20.10;;;;;;;19.99;100.00;101829.97;5072524;28;20183;-69
2021/07/17 03:54:10;;;;;;;24.77;18.83;;;;;;;20.08;100.00;101834.69;5073977;28;20269;-70
2021/07/17 03:56:36;;;;;;;25.53;20.17;;;;;;;20.11;100.00;101836.31;5096015;22;20590;-68
2021/07/17 03:59:01;;;;;;;28.87;18.20;;;;;;;20.05;100.00;101864.72;5092442;28;20303;-68
2021/07/17 04:01:26;;;;;;;25.07;18.90;;;;;;;20.16;100.00;101899.13;5093373;28;20207;-68
2021/07/17 04:03:52;;;;;;;22.90;17.60;;;;;;;20.25;100.00;101817.97;5092327;28;20199;-68
2021/07/17 04:06:17;;;;;;;25.70;18.47;;;;;;;20.40;100.00;101825.91;5093261;28;20201;-68
2021/07/17 04:08:42;;;;;;;19.90;17.30;;;;;;;20.40;100.00;101834.03;5092091;28;20535;-68
2021/07/17 04:11:08;;;;;;;23.67;17.47;;;;;;;20.53;100.00;101835.69;5093160;28;20200;-68
2021/07/17 04:13:33;;;;;;;21.63;16.83;;;;;;;20.62;100.00;101817.81;5093266;28;20550;-68
2021/07/17 04:15:58;;;;;;;24.43;17.10;;;;;;;20.43;100.00;101875.34;5093621;28;20659;-68
2021/07/17 04:18:23;;;;;;;22.33;17.57;;;;;;;20.35;100.00;101863.34;5091864;28;20174;-68
2021/07/17 04:20:49;;;;;;;23.37;17.10;;;;;;;20.37;100.00;101826.97;5093384;28;20186;-68
2021/07/17 04:23:14;;;;;;;25.97;18.40;;;;;;;20.37;100.00;101851.38;5093065;28;20178;-68
2021/07/17 04:25:39;;;;;;;22.43;18.37;;;;;;;20.34;100.00;101839.91;5093000;28;20598;-68
2021/07/17 04:28:05;;;;;;;25.30;17.77;;;;;;;20.34;100.00;101867.88;5092850;28;20202;-68
2021/07/17 04:30:30;;;;;;;26.53;18.80;;;;;;;20.34;100.00;101872.44;5092987;28;20249;-68
2021/07/17 04:32:55;;;;;;;23.60;17.03;;;;;;;20.43;100.00;101860.91;5092938;28;20178;-69
2021/07/17 04:35:21;;;;;;;26.27;18.80;;;;;;;20.37;100.00;101853.22;5091634;28;20170;-69
2021/07/17 04:37:48;;;;;;;28.27;18.57;;;;;;;20.26;100.00;101879.34;5075177;28;20171;-69
2021/07/17 04:40:14;;;;;;;24.83;17.93;;;;;;;20.47;100.00;101905.81;5092986;28;20174;-69
2021/07/17 04:42:39;;;;;;;22.37;18.43;;;;;;;20.57;100.00;101963.78;5092925;28;20174;-69
2021/07/17 04:45:04;;;;;;;25.67;16.87;;;;;;;20.66;100.00;101937.78;5092839;28;20251;-69
2021/07/17 04:47:30;;;;;;;23.90;16.67;;;;;;;20.63;100.00;101927.16;5092972;28;20206;-69
2021/07/17 04:49:55;;;;;;;19.63;15.27;;;;;;;20.71;100.00;101887.59;5093106;28;20167;-69
2021/07/17 04:52:20;;;;;;;19.27;14.43;;;;;;;20.81;100.00;101883.19;5091827;28;20179;-69
2021/07/17 04:54:46;;;;;;;16.80;13.53;;;;;;;21.03;100.00;101923.03;5091544;28;20173;-69
2021/07/17 04:57:11;;;;;;;16.00;13.13;;;;;;;21.02;100.00;101896.03;5091590;28;20217;-69
2021/07/17 04:59:36;;;;;;;14.13;11.63;;;;;;;21.19;98.67;101862.97;5091731;28;20174;-69
2021/07/17 05:02:02;;;;;;;22.97;12.57;;;;;;;21.25;98.57;101862.50;5092855;28;20181;-69
2021/07/17 05:04:27;;;;;;;19.80;13.80;;;;;;;21.12;99.39;101853.56;5092738;28;20225;-68
2021/07/17 05:06:53;;;;;;;17.07;12.77;;;;;;;21.15;98.99;101850.59;5092725;28;20197;-68
2021/07/17 05:09:18;;;;;;;16.03;12.20;;;;;;;21.16;98.64;101830.59;5091775;28;20237;-69
2021/07/17 05:11:43;;;;;;;16.87;13.50;;;;;;;21.20;97.72;101819.41;5092994;28;20635;-68
2021/07/17 05:14:09;;;;;;;18.83;13.53;;;;;;;21.33;96.37;101829.28;5093226;28;20246;-70
2021/07/17 05:16:34;;;;;;;19.10;13.17;;;;;;;21.44;95.26;101835.53;5094359;28;20187;-70
2021/07/17 05:18:59;;;;;;;19.07;12.87;;;;;;;21.47;94.37;101820.84;5100321;28;20170;-69
2021/07/17 05:21:24;;;;;;;17.63;12.87;;;;;;;21.61;93.45;101817.84;5104520;28;20178;-69
2021/07/17 05:23:50;;;;;;;18.17;12.77;;;;;;;21.52;94.16;101819.47;5086087;28;20166;-68
2021/07/17 05:26:15;;;;;;;18.53;12.93;;;;;;;21.53;93.93;101804.88;5101653;28;20225;-69
2021/07/17 05:28:40;;;;;;;18.73;13.20;;;;;;;21.33;95.35;101797.56;5096984;28;20226;-68
2021/07/17 05:31:06;;;;;;;17.37;13.40;;;;;;;21.33;95.57;101824.72;5096711;28;20185;-69
2021/07/17 05:33:31;;;;;;;20.47;14.10;;;;;;;21.39;95.29;101815.19;5094709;28;20182;-69
2021/07/17 05:35:56;;;;;;;21.83;13.17;;;;;;;21.44;95.11;101811.09;5094927;28;20201;-68
2021/07/17 05:38:21;;;;;;;16.10;13.00;;;;;;;21.43;95.19;101809.38;5096326;28;20170;-68
2021/07/17 05:40:47;;;;;;;21.60;13.17;;;;;;;21.45;95.57;101796.53;5096096;28;20204;-68
2021/07/17 05:43:12;;;;;;;15.33;12.50;;;;;;;21.52;94.64;101803.16;5094730;28;20206;-68
2021/07/17 05:45:37;;;;;;;17.80;13.53;;;;;;;21.48;94.65;101803.56;5094733;28;20226;-68
2021/07/17 05:48:03;;;;;;;17.87;12.63;;;;;;;21.40;95.26;101779.75;5096011;28;20602;-68
2021/07/17 05:50:29;;;;;;;21.20;13.70;;;;;;;21.31;96.13;101769.66;5094517;28;20734;-68
2021/07/17 05:52:54;;;;;;;19.43;14.13;;;;;;;21.33;97.31;101807.56;5096316;28;20178;-68
2021/07/17 05:55:19;;;;;;;21.90;14.00;;;;;;;21.13;98.54;101763.88;5094422;28;20178;-69
2021/07/17 05:57:45;;;;;;;21.10;13.33;;;;;;;21.24;97.97;101771.19;5095534;28;20182;-68
2021/07/17 06:00:10;;;;;;;19.30;14.20;;;;;;;21.17;98.50;101761.75;5094667;28;20181;-68
2021/07/17 06:02:36;;;;;;;20.93;13.87;;;;;;;21.33;97.56;101775.84;5095473;28;20182;-68
2021/07/17 06:05:01;;;;;;;21.67;13.43;;;;;;;21.40;96.07;102102.91;5095732;28;20206;-68
2021/07/17 06:07:26;;;;;;;20.60;13.90;;;;;;;21.38;96.41;101805.31;5094074;28;20285;-68
2021/07/17 06:09:51;;;;;;;19.10;13.93;;;;;;;21.52;95.80;101792.28;5095964;28;20170;-68
2021/07/17 06:12:17;;;;;;;17.90;13.27;;;;;;;21.62;95.28;101799.69;5095477;28;20201;-67
2021/07/17 06:14:42;;;;;;;20.60;13.27;;;;;;;21.59;94.90;101792.66;5095240;28;20676;-68
2021/07/17 06:17:11;;;;;;;13.80;11.73;;;;;;;21.65;94.74;101777.69;5095141;28;20201;-68
2021/07/17 06:19:43;;;;;;;20.57;13.53;;;;;;;21.66;94.50;101785.72;5094173;28;20209;-68
2021/07/17 06:22:09;;;;;;;17.77;12.63;;;;;;;21.81;94.14;101781.69;5094275;28;20236;-68
2021/07/17 06:24:35;;;;;;;16.67;12.90;;;;;;;21.83;93.53;101773.41;5095067;28;20193;-68
2021/07/17 06:27:00;;;;;;;18.93;12.87;;;;;;;21.89;92.36;101775.59;5094930;28;20650;-68
2021/07/17 06:29:25;;;;;;;17.83;13.90;;;;;;;21.79;93.42;101770.09;5093821;28;20276;-68
2021/07/17 06:31:51;;;;;;;19.77;13.43;;;;;;;21.79;93.25;102039.09;5093798;28;20174;-68
2021/07/17 06:34:16;;;;;;;19.33;13.30;;;;;;;21.71;93.18;101870.41;5094118;28;20661;-68
2021/07/17 06:36:41;;;;;;;22.90;13.80;;;;;;;21.66;93.63;101806.59;5094927;28;20236;-68
2021/07/17 06:39:07;;;;;;;15.37;13.37;;;;;;;21.76;92.63;101979.56;5094063;28;20174;-69
2021/07/17 06:41:32;;;;;;;17.97;13.03;;;;;;;21.73;92.79;101821.38;5095043;28;20174;-69
2021/07/17 06:43:57;;;;;;;15.63;12.73;;;;;;;21.90;92.16;101777.31;5094652;28;20171;-69
2021/07/17 06:46:23;;;;;;;17.30;12.67;;;;;;;21.86;91.91;101743.25;5093385;28;20601;-69
2021/07/17 06:48:48;;;;;;;17.97;13.47;;;;;;;21.99;91.28;101784.69;5094598;28;20194;-68
2021/07/17 06:51:14;;;;;;;16.50;13.13;;;;;;;21.95;91.72;101571.25;5094621;28;20170;-69
2021/07/17 06:53:39;;;;;;;15.20;13.03;;;;;;;21.87;92.07;101738.66;5094708;28;20245;-68
2021/07/17 06:56:05;;;;;;;18.77;13.00;;;;;;;21.81;92.37;101727.34;5094447;28;20206;-68
2021/07/17 06:58:30;;;;;;;19.40;13.53;;;;;;;21.86;92.24;101724.22;5093661;28;20163;-68
2021/07/17 07:00:57;;;;;;;17.43;12.77;;;;;;;21.88;92.95;101726.81;5094587;28;20222;-68
2021/07/17 07:03:22;;;;;;;16.93;12.23;;;;;;;21.96;92.09;101736.03;5093067;28;20738;-68
2021/07/17 07:05:47;;;;;;;18.67;12.27;;;;;;;21.99;91.83;101735.78;5094133;28;20194;-68
2021/07/17 07:08:12;;;;;;;18.17;12.97;;;;;;;22.17;90.24;101727.03;5092982;28;20190;-69
2021/07/17 07:10:38;;;;;;;20.20;13.13;;;;;;;22.14;90.55;101723.59;5092879;28;20247;-69
2021/07/17 07:13:14;;;;;;;18.27;13.10;;;;;;;22.15;90.59;101728.03;5093536;28;20223;-69
2021/07/17 07:15:40;;;;;;;15.63;12.20;;;;;;;22.03;90.75;101715.50;5093924;28;20649;-69
2021/07/17 07:18:05;;;;;;;14.83;11.93;;;;;;;22.07;91.70;101733.28;5093814;28;20162;-69
2021/07/17 07:20:31;;;;;;;18.90;12.43;;;;;;;22.17;90.77;101725.16;5094434;28;20239;-69
2021/07/17 07:22:56;;;;;;;15.33;12.83;;;;;;;22.14;91.02;101714.56;5093849;28;20243;-69
2021/07/17 07:25:21;;;;;;;22.67;13.93;;;;;;;22.01;91.50;101739.22;5093730;28;20166;-69
2021/07/17 07:27:47;;;;;;;19.63;14.10;;;;;;;22.07;91.63;101733.28;5093741;28;20288;-69
2021/07/17 07:30:13;;;;;;;17.03;12.93;;;;;;;21.85;93.01;101744.25;5093778;28;20249;-69
2021/07/17 07:32:38;;;;;;;23.63;13.13;;;;;;;21.97;92.66;101742.34;5092482;28;20277;-69
2021/07/17 07:35:04;;;;;;;17.80;13.60;;;;;;;22.01;92.59;101711.19;5093092;28;20286;-69
2021/07/17 07:37:29;;;;;;;19.53;13.90;;;;;;;21.97;93.82;102787.03;5093859;28;20194;-69
2021/07/17 07:39:55;;;;;;;16.83;12.50;;;;;;;22.10;93.50;101851.75;5093766;28;20170;-69
2021/07/17 07:42:21;;;;;;;18.37;12.63;;;;;;;22.20;91.46;101688.69;5093668;28;20170;-69
2021/07/17 07:44:46;;;;;;;17.77;13.23;;;;;;;22.34;89.14;101653.00;5094099;28;20249;-69
2021/07/17 07:47:11;;;;;;;18.03;13.40;;;;;;;22.32;89.26;101606.03;5093315;28;20189;-69
2021/07/17 07:49:37;;;;;;;18.40;11.90;;;;;;;22.56;88.30;101605.66;5093360;28;20174;-69
2021/07/17 07:52:02;;;;;;;20.10;12.13;;;;;;;22.54;88.10;101610.38;5093406;28;20192;-68
2021/07/17 07:54:28;;;;;;;15.10;11.97;;;;;;;22.73;86.83;101603.13;5093284;28;20565;-69
2021/07/17 07:56:53;;;;;;;16.07;11.47;;;;;;;22.58;87.68;101584.63;5092031;28;20262;-69
2021/07/17 07:59:18;;;;;;;17.33;11.77;;;;;;;22.64;87.07;101584.03;5093343;28;20166;-69
2021/07/17 08:01:44;;;;;;;18.20;12.83;;;;;;;22.51;87.10;101588.91;5093575;28;20685;-69
2021/07/17 08:04:12;;;;;;;16.83;12.43;;;;;;;22.62;87.16;101592.34;5093606;28;20178;-69
2021/07/17 08:06:37;;;;;;;16.43;12.30;;;;;;;22.47;88.04;101591.03;5091941;28;20547;-69
2021/07/17 08:09:03;;;;;;;16.83;12.20;;;;;;;22.58;86.91;101590.06;5091914;28;20216;-68
2021/07/17 08:11:28;;;;;;;16.43;11.60;;;;;;;22.77;85.81;101585.50;5093112;28;20236;-69
2021/07/17 08:13:53;;;;;;;16.03;11.27;;;;;;;22.87;85.71;101587.41;5093375;28;20181;-69
2021/07/17 08:16:19;;;;;;;14.70;11.27;;;;;;;23.01;84.73;101584.25;5091776;28;20669;-69
2021/07/17 08:18:44;;;;;;;16.47;12.10;;;;;;;22.78;84.58;101579.06;5092236;28;20216;-69
2021/07/17 08:21:09;;;;;;;14.37;11.13;;;;;;;22.83;84.32;101584.13;5093264;28;20177;-68
2021/07/17 08:23:34;;;;;;;17.50;12.23;;;;;;;22.82;84.78;101968.84;5093000;28;20166;-68
2021/07/17 08:26:00;;;;;;;16.33;11.37;;;;;;;22.70;85.64;101671.44;5092881;28;20197;-68
2021/07/17 08:28:25;;;;;;;13.67;11.10;;;;;;;22.87;84.19;102227.03;5074964;28;20198;-68
2021/07/17 08:30:50;;;;;;;16.20;11.83;;;;;;;22.78;84.77;101719.72;5091906;28;20189;-68
2021/07/17 08:33:16;;;;;;;13.13;11.70;;;;;;;22.77;84.51;101615.44;5093360;28;20170;-69
2021/07/17 08:35:41;;;;;;;16.43;12.10;;;;;;;22.74;84.93;101555.88;5092789;28;20197;-69
2021/07/17 08:38:07;;;;;;;16.77;11.33;;;;;;;22.87;84.88;101561.03;5092888;28;20166;-69
2021/07/17 08:40:32;;;;;;;16.03;11.93;;;;;;;23.13;83.75;101564.06;5091569;28;20592;-69
2021/07/17 08:42:58;;;;;;;21.00;11.97;;;;;;;23.30;82.37;101549.69;5093335;28;20166;-68
2021/07/17 08:45:24;;;;;;;16.07;12.07;;;;;;;23.27;81.80;101547.25;5091410;28;20166;-68
2021/07/17 08:47:53;;;;;;;16.00;12.27;;;;;;;23.60;80.69;101564.13;5092630;28;20202;-68
2021/07/17 08:50:22;;;;;;;14.33;10.93;;;;;;;23.74;79.42;101696.31;5092551;28;20166;-68
2021/07/17 08:52:58;;;;;;;17.57;12.33;;;;;;;23.58;80.14;101804.06;5092045;28;20223;-68
2021/07/17 08:55:26;;;;;;;17.40;11.87;;;;;;;23.96;78.67;101705.03;5096463;28;20653;-69
2021/07/17 08:57:52;;;;;;;18.00;12.73;;;;;;;23.77;78.85;102137.59;5097486;28;20266;-68
2021/07/17 09:00:20;;;;;;;17.43;12.03;;;;;;;24.16;78.11;101770.44;5100626;28;20210;-68
2021/07/17 09:02:48;;;;;;;13.63;11.13;;;;;;;23.98;76.93;101820.28;5099539;28;20186;-69
2021/07/17 09:05:17;;;;;;;13.73;11.27;;;;;;;23.99;77.46;101707.47;5097188;28;20269;-68
2021/07/17 09:07:42;;;;;;;15.57;10.60;;;;;;;23.90;76.19;101827.47;5095384;28;20199;-68
2021/07/17 09:10:35;;;;;;;14.27;11.50;;;;;;;24.20;75.03;102022.81;5096802;28;20201;-68
2021/07/17 09:13:06;;;;;;;14.17;10.93;;;;;;;24.07;75.15;101910.41;5096514;28;20167;-68
2021/07/17 09:15:32;;;;;;;13.60;10.83;;;;;;;24.21;75.09;102286.41;5096444;28;20163;-68
2021/07/17 09:17:57;;;;;;;14.10;10.27;;;;;;;24.55;72.45;101885.88;5078463;28;20182;-68
2021/07/17 09:20:23;;;;;;;11.77;10.47;;;;;;;24.38;73.43;101914.72;5096622;28;20172;-68
2021/07/17 09:22:59;;;;;;;12.43;10.23;;;;;;;24.52;72.30;101756.00;5096558;28;20186;-69
2021/07/17 09:25:34;;;;;;;15.93;10.77;;;;;;;24.92;71.32;101885.91;5094853;28;20210;-68
2021/07/17 09:28:16;;;;;;;16.30;10.77;;;;;;;24.15;72.30;102243.28;5096414;28;20569;-68
2021/07/17 09:30:42;;;;;;;13.07;10.73;;;;;;;24.17;72.19;102503.19;5095228;28;20606;-68
2021/07/17 09:33:07;;;;;;;16.30;10.63;;;;;;;24.62;72.19;102005.22;5095218;28;20205;-67
2021/07/17 09:35:34;;;;;;;13.70;10.87;;;;;;;25.19;69.49;101814.94;5095156;28;20198;-69
2021/07/17 09:38:01;;;;;;;12.20;10.13;;;;;;;24.71;74.08;101523.06;5095383;28;20171;-68
2021/07/17 09:40:28;;;;;;;15.00;10.37;;;;;;;24.90;70.71;101647.63;5096429;28;20170;-68
2021/07/17 09:42:53;;;;;;;15.93;11.20;;;;;;;24.61;71.77;101555.91;5095407;28;20292;-68
2021/07/17 09:45:33;;;;;;;12.90;10.90;;;;;;;24.28;71.94;101548.38;5096718;28;20178;-69
2021/07/17 09:47:58;;;;;;;18.20;10.83;;;;;;;24.27;72.59;101533.88;5095676;28;20216;-68
2021/07/17 09:50:25;;;;;;;12.87;10.90;;;;;;;24.52;72.38;101605.91;5095185;28;20535;-68
2021/07/17 09:52:50;;;;;;;12.50;10.70;;;;;;;24.34;72.69;101487.72;5095337;28;20245;-68
2021/07/17 09:55:18;;;;;;;15.97;10.67;;;;;;;24.36;71.22;101454.84;5094657;28;20688;-69
2021/07/17 09:57:44;;;;;;;10.93;9.80;;;;;;;24.60;70.51;101436.84;5103628;22;20702;-71
2021/07/17 10:00:10;;;;;;;13.70;10.97;;;;;;;24.91;68.71;101453.63;5093652;28;20254;-71
2021/07/17 10:02:36;;;;;;;11.87;10.47;;;;;;;25.24;68.21;101435.59;5075011;28;20244;-72
2021/07/17 10:05:03;;;;;;;10.63;9.30;;;;;;;25.77;66.08;101437.28;5076240;28;20651;-70
2021/07/17 10:07:29;;;;;;;12.30;9.40;;;;;;;26.52;63.75;101434.53;5053835;28;20269;-71
2021/07/17 10:09:54;;;;;;;11.40;9.43;;;;;;;25.81;62.36;101410.44;5071196;28;20175;-72
2021/07/17 10:12:30;;;;;;;11.70;9.77;;;;;;;25.13;66.40;101407.72;5071845;28;20652;-72
2021/07/17 10:14:56;;;;;;;10.07;9.00;;;;;;;25.30;67.02;101420.47;5072625;28;20186;-72
2021/07/17 10:17:32;;;;;;;9.77;8.77;;;;;;;25.93;65.91;101421.91;5073236;28;20675;-72
2021/07/17 10:20:00;;;;;;;12.47;9.20;;;;;;;26.02;63.27;101407.28;5070697;28;20626;-71
2021/07/17 10:22:25;;;;;;;10.83;8.50;;;;;;;26.07;61.50;101434.97;5070446;28;20258;-71
2021/07/17 10:24:50;;;;;;;13.93;8.97;;;;;;;25.96;63.21;101424.31;5054149;28;20253;-72
2021/07/17 10:27:16;;;;;;;10.33;9.13;;;;;;;25.77;62.58;101418.13;5037464;28;20211;-72
2021/07/17 10:29:41;;;;;;;9.60;8.20;;;;;;;26.79;59.04;101419.66;5070711;28;20178;-71
2021/07/17 10:32:07;;;;;;;11.10;9.03;;;;;;;26.66;59.60;101416.56;5070505;28;20654;-72
2021/07/17 10:34:32;;;;;;;13.53;9.47;;;;;;;26.58;61.42;101419.31;5054512;28;20171;-73
2021/07/17 10:37:02;;;;;;;9.43;8.53;;;;;;;26.43;61.07;101422.75;5054331;28;20199;-73
2021/07/17 10:39:33;;;;;;;12.03;8.43;;;;;;;26.26;59.00;101423.69;5071626;28;20544;-72
2021/07/17 10:42:00;;;;;;;10.17;8.47;;;;;;;25.87;62.12;101409.78;5074144;28;20228;-70
2021/07/17 10:44:46;;;;;;;11.20;8.53;;;;;;;25.74;63.52;101402.06;5054394;28;20176;-71
2021/07/17 10:47:12;;;;;;;11.33;8.70;;;;;;;26.40;60.96;101405.81;5070348;28;20188;-72
2021/07/17 10:49:39;;;;;;;13.40;8.10;;;;;;;26.75;59.92;101412.78;5070210;28;20231;-74
2021/07/17 10:52:06;;;;;;;11.40;8.40;;;;;;;27.47;56.65;101408.19;5054475;28;20658;-72
2021/07/17 10:54:31;;;;;;;11.83;8.03;;;;;;;27.48;57.42;101395.34;5070251;28;20278;-71
2021/07/17 10:56:57;;;;;;;10.00;8.47;;;;;;;27.30;56.44;101399.19;5069538;28;20667;-71
2021/07/17 10:59:23;;;;;;;10.10;8.13;;;;;;;27.30;56.76;101421.13;5054505;28;20179;-70
2021/07/17 11:01:57;;;;;;;11.00;8.33;;;;;;;27.23;56.90;101400.09;5054696;28;20172;-71
2021/07/17 11:04:51;;;;;;;10.07;7.70;;;;;;;26.91;59.03;101399.09;5054669;28;20167;-72